Time;durP1;ratioP1;P1;durP2;ratioP2;P2;SDS_P1;SDS_P2;PMS_P1;PMS_P2;Temp;Humidity;BMP_temperature;BMP_pressure;BME280_temperature;BME280_humidity;BME280_pressure;Samples;Min_cycle;Max_cycle;Signal;HPM_P1;HPM_P2
2024/02/29 00:00:17;;;;;;;;;;;;;;;-3.71;100.00;101738.54;109463;1252;65908;-53
2024/02/29 00:02:44;;;;;;;;;;;;;;;-3.72;100.00;101736.50;109403;1252;72743;-53
2024/02/29 00:05:12;;;;;;;;;;;;;;;-3.73;100.00;101734.85;109411;1252;59490;-53
2024/02/29 00:07:40;;;;;;;;;;;;;;;-3.74;100.00;101728.42;109427;1252;59883;-59
2024/02/29 00:10:08;;;;;;;;;;;;;;;-3.74;100.00;101729.13;109419;1251;73411;-53
2024/02/29 00:12:36;;;;;;;;;;;;;;;-3.75;100.00;101728.98;109456;1251;66891;-53
2024/02/29 00:15:05;;;;;;;;;;;;;;;-3.75;100.00;101731.02;109342;1252;72708;-53
2024/02/29 00:17:32;;;;;;;;;;;;;;;-3.76;100.00;101727.83;109444;1252;59796;-59
2024/02/29 00:20:00;;;;;;;;;;;;;;;-3.77;100.00;101724.13;109460;1252;59315;-53
2024/02/29 00:22:27;;;;;;;;;;;;;;;-3.79;100.00;101720.96;109415;1252;74737;-54
2024/02/29 00:24:55;;;;;;;;;;;;;;;-3.80;100.00;101722.54;109438;1252;67371;-53
2024/02/29 00:27:24;;;;;;;;;;;;;;;-3.82;100.00;101722.61;109444;1252;72700;-53
2024/02/29 00:29:51;;;;;;;;;;;;;;;-3.84;100.00;101719.29;109383;1251;60404;-53
2024/02/29 00:32:19;;;;;;;;;;;;;;;-3.86;100.00;101715.27;109461;1251;59229;-53
2024/02/29 00:34:46;;;;;;;;;;;;;;;-3.88;100.00;101710.61;109519;1252;74749;-52
2024/02/29 00:37:14;;;;;;;;;;;;;;;-3.93;100.00;101705.67;109469;1251;66152;-52
2024/02/29 00:39:41;;;;;;;;;;;;;;;-3.94;100.00;101701.81;109451;1251;71406;-53
2024/02/29 00:42:09;;;;;;;;;;;;;;;-3.96;100.00;101703.39;109384;1252;61622;-53
2024/02/29 00:44:36;;;;;;;;;;;;;;;-3.96;100.00;101700.88;109460;1251;59278;-52
2024/02/29 00:47:04;;;;;;;;;;;;;;;-3.98;100.00;101696.69;109476;1252;74749;-53
2024/02/29 00:49:33;;;;;;;;;;;;;;;-3.99;100.00;101692.80;109462;1250;67417;-53
2024/02/29 00:52:00;;;;;;;;;;;;;;;-4.00;100.00;101696.08;109353;1253;72675;-60
2024/02/29 00:54:28;;;;;;;;;;;;;;;-4.01;100.00;101692.73;109447;1251;60493;-56
2024/02/29 00:56:55;;;;;;;;;;;;;;;-4.00;100.00;101693.71;109424;1253;58883;-52
2024/02/29 00:59:23;;;;;;;;;;;;;;;-3.99;100.00;101697.05;109466;1252;74751;-52
2024/02/29 01:01:50;;;;;;;;;;;;;;;-3.99;100.00;101700.47;109426;1253;66834;-53
2024/02/29 01:04:18;;;;;;;;;;;;;;;-4.00;100.00;101698.30;109393;1252;73223;-53
2024/02/29 01:06:45;;;;;;;;;;;;;;;-4.02;100.00;101702.44;109411;1253;59525;-52
2024/02/29 01:09:13;;;;;;;;;;;;;;;-4.02;100.00;101706.69;109451;1252;59964;-53
2024/02/29 01:11:40;;;;;;;;;;;;;;;-4.03;100.00;101700.61;109382;1251;74761;-60
2024/02/29 01:14:08;;;;;;;;;;;;;;;-4.05;100.00;101701.52;109443;1253;65748;-52
2024/02/29 01:16:36;;;;;;;;;;;;;;;-4.07;100.00;101704.13;109470;1252;71756;-53
2024/02/29 01:19:05;;;;;;;;;;;;;;;-4.10;100.00;101701.70;109411;1251;59903;-52
2024/02/29 01:21:33;;;;;;;;;;;;;;;-4.14;100.00;101702.50;109484;1251;59897;-53
2024/02/29 01:24:00;;;;;;;;;;;;;;;-4.16;100.00;101709.55;109421;1253;74398;-53
2024/02/29 01:26:28;;;;;;;;;;;;;;;-4.18;100.00;101713.14;109494;1252;67495;-53
2024/02/29 01:28:56;;;;;;;;;;;;;;;-4.19;100.00;101709.83;109488;1251;72750;-54
2024/02/29 01:31:23;;;;;;;;;;;;;;;-4.21;100.00;101717.33;109454;1253;59684;-53
2024/02/29 01:33:51;;;;;;;;;;;;;;;-4.24;100.00;101715.58;109409;1251;58924;-54
2024/02/29 01:36:18;;;;;;;;;;;;;;;-4.27;100.00;101718.91;109431;1252;74712;-53
2024/02/29 01:38:46;;;;;;;;;;;;;;;-4.29;100.00;101716.95;109462;1252;66821;-53
2024/02/29 01:41:14;;;;;;;;;;;;;;;-4.33;100.00;101712.48;109466;1251;72702;-52
2024/02/29 01:43:49;;;;;;;;;;;;;;;-4.35;100.00;101711.39;109491;1252;58905;-53
2024/02/29 01:46:17;;;;;;;;;;;;;;;-4.37;100.00;101708.55;109472;1252;60400;-52
2024/02/29 01:48:48;;;;;;;;;;;;;;;-4.39;100.00;101707.45;109461;1253;74755;-53
2024/02/29 01:51:16;;;;;;;;;;;;;;;-4.42;100.00;101709.38;109532;1251;67132;-52
2024/02/29 01:53:44;;;;;;;;;;;;;;;-4.44;100.00;101719.13;109392;1253;71424;-55
2024/02/29 01:56:12;;;;;;;;;;;;;;;-4.47;100.00;101723.64;109479;1251;59469;-53
2024/02/29 01:58:43;;;;;;;;;;;;;;;-4.49;100.00;101728.97;109478;1252;59063;-52
2024/02/29 02:01:10;;;;;;;;;;;;;;;-4.50;100.00;101731.05;109516;1252;74693;-52
2024/02/29 02:03:38;;;;;;;;;;;;;;;-4.52;100.00;101736.55;109415;1251;66018;-52
2024/02/29 02:06:06;;;;;;;;;;;;;;;-4.57;100.00;101736.54;109430;1252;72709;-54
2024/02/29 02:08:33;;;;;;;;;;;;;;;-4.58;100.00;101738.45;109434;1253;60454;-53
2024/02/29 02:11:01;;;;;;;;;;;;;;;-4.60;100.00;101739.20;109470;1252;58915;-52
2024/02/29 02:13:28;;;;;;;;;;;;;;;-4.61;100.00;101740.08;109435;1252;73428;-53
2024/02/29 02:15:56;;;;;;;;;;;;;;;-4.60;100.00;101738.52;109441;1252;67408;-53
2024/02/29 02:18:23;;;;;;;;;;;;;;;-4.59;100.00;101735.60;109338;1251;72721;-53
2024/02/29 02:20:54;;;;;;;;;;;;;;;-4.59;100.00;101733.54;109384;1252;60086;-53
2024/02/29 02:23:21;;;;;;;;;;;;;;;-4.57;100.00;101730.79;109464;1253;58883;-52
2024/02/29 02:25:49;;;;;;;;;;;;;;;-4.57;100.00;101735.35;109447;1253;74790;-53
2024/02/29 02:28:16;;;;;;;;;;;;;;;-4.58;100.00;101736.59;109377;1253;65655;-53
2024/02/29 02:30:44;;;;;;;;;;;;;;;-4.59;100.00;101737.63;109393;1251;73581;-53
2024/02/29 02:33:12;;;;;;;;;;;;;;;-4.61;100.00;101738.20;109383;1252;59467;-53
2024/02/29 02:35:39;;;;;;;;;;;;;;;-4.60;100.00;101733.94;109456;1251;59201;-53
2024/02/29 02:38:07;;;;;;;;;;;;;;;-4.60;100.00;101731.20;109409;1251;73763;-52
2024/02/29 02:40:35;;;;;;;;;;;;;;;-4.60;100.00;101730.55;109391;1253;65980;-60
2024/02/29 02:43:02;;;;;;;;;;;;;;;-4.61;100.00;101736.69;109406;1253;72727;-55
2024/02/29 02:45:30;;;;;;;;;;;;;;;-4.63;100.00;101735.03;109399;1252;59407;-52
2024/02/29 02:47:58;;;;;;;;;;;;;;;-4.62;100.00;101739.92;109440;1257;59936;-52
2024/02/29 02:50:25;;;;;;;;;;;;;;;-4.63;100.00;101743.36;109418;1253;74684;-53
2024/02/29 02:52:53;;;;;;;;;;;;;;;-4.65;100.00;101744.27;109322;1253;65849;-55
2024/02/29 02:55:20;;;;;;;;;;;;;;;-4.64;100.00;101750.33;109431;1257;72670;-52
2024/02/29 02:57:48;;;;;;;;;;;;;;;-4.66;100.00;101750.90;109428;1253;58906;-53
2024/02/29 03:00:16;;;;;;;;;;;;;;;-4.67;100.00;101748.38;109417;1253;59870;-53
2024/02/29 03:02:43;;;;;;;;;;;;;;;-4.70;100.00;101750.02;109389;1253;73923;-56
2024/02/29 03:05:12;;;;;;;;;;;;;;;-4.73;100.00;101754.33;109419;1253;66943;-52
2024/02/29 03:07:39;;;;;;;;;;;;;;;-4.77;100.00;101749.55;109391;1253;72699;-53
2024/02/29 03:10:08;;;;;;;;;;;;;;;-4.81;100.00;101750.70;109409;1253;60341;-53
2024/02/29 03:12:37;;;;;;;;;;;;;;;-4.84;100.00;101749.27;109421;1253;59495;-53
2024/02/29 03:15:05;;;;;;;;;;;;;;;-4.85;100.00;101747.27;109441;1253;74855;-53
2024/02/29 03:17:33;;;;;;;;;;;;;;;-4.87;100.00;101750.21;109449;1253;65647;-52
2024/02/29 03:20:00;;;;;;;;;;;;;;;-4.88;100.00;101750.26;109408;1253;71453;-52
2024/02/29 03:22:28;;;;;;;;;;;;;;;-4.88;100.00;101750.57;109343;1253;61832;-53
2024/02/29 03:24:57;;;;;;;;;;;;;;;-4.83;100.00;101752.64;109456;1253;58983;-55
2024/02/29 03:27:24;;;;;;;;;;;;;;;-4.83;100.00;101751.95;109412;1253;73373;-52
2024/02/29 03:29:52;;;;;;;;;;;;;;;-4.81;100.00;101752.91;109433;1253;66963;-53
2024/02/29 03:32:19;;;;;;;;;;;;;;;-4.83;100.00;101753.96;109431;1253;71623;-53
2024/02/29 03:34:47;;;;;;;;;;;;;;;-4.83;100.00;101756.36;109330;1253;60457;-53
2024/02/29 03:37:14;;;;;;;;;;;;;;;-4.85;100.00;101751.48;109385;1253;59418;-53
2024/02/29 03:39:42;;;;;;;;;;;;;;;-4.86;100.00;101748.63;109388;1253;74713;-52
2024/02/29 03:42:10;;;;;;;;;;;;;;;-4.89;100.00;101744.17;109381;1253;66942;-52
2024/02/29 03:44:41;;;;;;;;;;;;;;;-4.91;100.00;101745.08;109376;1253;71787;-59
2024/02/29 03:47:08;;;;;;;;;;;;;;;-4.94;100.00;101739.55;109400;1253;62342;-52
2024/02/29 03:49:36;;;;;;;;;;;;;;;-4.97;100.00;101739.98;109420;1252;60048;-53
2024/02/29 03:52:04;;;;;;;;;;;;;;;-5.00;100.00;101737.90;109430;1253;74789;-53
2024/02/29 03:54:31;;;;;;;;;;;;;;;-5.04;100.00;101734.29;109417;1253;66982;-53
2024/02/29 03:56:59;;;;;;;;;;;;;;;-5.07;100.00;101737.44;109335;1253;73980;-53
2024/02/29 03:59:26;;;;;;;;;;;;;;;-5.10;100.00;101734.47;109364;1254;60446;-52
2024/02/29 04:01:54;;;;;;;;;;;;;;;-5.12;100.00;101739.27;109373;1253;59026;-52
2024/02/29 04:04:21;;;;;;;;;;;;;;;-5.12;100.00;101738.94;109427;1253;74747;-52
2024/02/29 04:06:49;;;;;;;;;;;;;;;-5.12;100.00;101740.27;109442;1253;67034;-59
2024/02/29 04:09:17;;;;;;;;;;;;;;;-5.10;100.00;101745.98;109341;1253;73179;-53
2024/02/29 04:11:45;;;;;;;;;;;;;;;-5.09;100.00;101746.82;109388;1254;61654;-53
2024/02/29 04:14:12;;;;;;;;;;;;;;;-5.09;100.00;101746.96;109397;1253;60279;-53
2024/02/29 04:16:40;;;;;;;;;;;;;;;-5.05;100.00;101745.33;109435;1252;74734;-53
2024/02/29 04:19:07;;;;;;;;;;;;;;;-5.01;100.00;101747.59;109415;1253;67532;-59
2024/02/29 04:21:35;;;;;;;;;;;;;;;-4.94;100.00;101749.23;109400;1253;72780;-52
2024/02/29 04:24:03;;;;;;;;;;;;;;;-4.78;100.00;101754.17;109401;1253;61731;-53
2024/02/29 04:26:30;;;;;;;;;;;;;;;-4.59;100.00;101752.20;109408;1253;59882;-52
2024/02/29 04:28:58;;;;;;;;;;;;;;;-4.34;100.00;101750.88;109391;1253;74410;-56
2024/02/29 04:31:26;;;;;;;;;;;;;;;-4.07;100.00;101748.26;109352;1253;65707;-52
2024/02/29 04:33:53;;;;;;;;;;;;;;;-3.77;100.00;101745.03;109394;1253;72375;-54
2024/02/29 04:36:21;;;;;;;;;;;;;;;-3.54;100.00;101744.20;109379;1257;61728;-53
2024/02/29 04:38:49;;;;;;;;;;;;;;;-3.42;100.00;101745.45;109388;1252;59006;-52
2024/02/29 04:41:17;;;;;;;;;;;;;;;-3.35;100.00;101753.84;109366;1256;75139;-58
2024/02/29 04:43:45;;;;;;;;;;;;;;;-3.30;100.00;101758.10;109427;1256;65931;-53
2024/02/29 04:46:12;;;;;;;;;;;;;;;-3.22;100.00;101757.29;109457;1253;72931;-53
2024/02/29 04:48:40;;;;;;;;;;;;;;;-3.14;100.00;101762.74;109349;1253;60452;-53
2024/02/29 04:51:07;;;;;;;;;;;;;;;-3.07;100.00;101752.65;109380;1253;59864;-58
2024/02/29 04:53:35;;;;;;;;;;;;;;;-3.07;100.00;101744.83;109412;1255;75218;-52
2024/02/29 04:56:04;;;;;;;;;;;;;;;-3.11;100.00;101742.26;109395;1253;66986;-52
2024/02/29 04:58:32;;;;;;;;;;;;;;;-3.14;100.00;101742.71;109370;1253;72740;-53
2024/02/29 05:01:01;;;;;;;;;;;;;;;-3.17;100.00;101739.41;109387;1253;60726;-53
2024/02/29 05:03:29;;;;;;;;;;;;;;;-3.18;100.00;101735.55;109387;1257;59913;-53
2024/02/29 05:05:57;;;;;;;;;;;;;;;-3.14;100.00;101738.63;109407;1253;74717;-52
2024/02/29 05:08:24;;;;;;;;;;;;;;;-3.10;100.00;101740.52;109436;1254;67277;-53
2024/02/29 05:10:51;;;;;;;;;;;;;;;-3.04;100.00;101746.40;109362;1253;71353;-53
2024/02/29 05:13:19;;;;;;;;;;;;;;;-2.98;100.00;101749.58;109362;1253;61913;-59
2024/02/29 05:15:47;;;;;;;;;;;;;;;-2.88;100.00;101753.92;109381;1253;58995;-53
2024/02/29 05:18:14;;;;;;;;;;;;;;;-2.78;100.00;101756.47;109443;1253;74839;-53
2024/02/29 05:20:42;;;;;;;;;;;;;;;-2.68;100.00;101752.13;109392;1252;67005;-53
2024/02/29 05:23:11;;;;;;;;;;;;;;;-2.55;100.00;101749.77;109368;1253;72712;-53
2024/02/29 05:25:38;;;;;;;;;;;;;;;-2.46;100.00;101753.31;109335;1252;60970;-59
2024/02/29 05:28:06;;;;;;;;;;;;;;;-2.36;100.00;101752.40;109382;1254;60392;-52
2024/02/29 05:30:33;;;;;;;;;;;;;;;-2.24;100.00;101748.83;109416;1253;74833;-55
2024/02/29 05:33:01;;;;;;;;;;;;;;;-2.12;100.00;101752.08;109408;1252;65552;-53
2024/02/29 05:35:29;;;;;;;;;;;;;;;-2.01;100.00;101750.58;109367;1254;71416;-53
2024/02/29 05:37:56;;;;;;;;;;;;;;;-1.90;100.00;101750.11;109360;1253;60935;-54
2024/02/29 05:40:26;;;;;;;;;;;;;;;-1.79;100.00;101745.88;109377;1255;59780;-53
2024/02/29 05:42:54;;;;;;;;;;;;;;;-1.67;100.00;101743.79;109412;1252;74710;-53
2024/02/29 05:45:22;;;;;;;;;;;;;;;-1.62;100.00;101740.02;109465;1253;66038;-53
2024/02/29 05:47:50;;;;;;;;;;;;;;;-1.54;100.00;101734.69;109454;1253;72582;-59
2024/02/29 05:50:18;;;;;;;;;;;;;;;-1.42;100.00;101726.67;109347;1254;60932;-53
2024/02/29 05:52:45;;;;;;;;;;;;;;;-1.26;100.00;101720.48;109410;1253;59890;-53
2024/02/29 05:55:12;;;;;;;;;;;;;;;-1.13;100.00;101717.48;109433;1254;74743;-53
2024/02/29 05:57:40;;;;;;;;;;;;;;;-0.98;100.00;101712.70;109340;1253;66005;-53
2024/02/29 06:00:08;;;;;;;;;;;;;;;-0.80;100.00;101709.09;109383;1256;71360;-59
2024/02/29 06:02:38;;;;;;;;;;;;;;;-0.56;100.00;101708.42;109398;1254;59012;-53
2024/02/29 06:05:07;;;;;;;;;;;;;;;-0.16;100.00;101704.70;109350;1253;58979;-53
2024/02/29 06:07:36;;;;;;;;;;;;;;;0.54;100.00;101700.55;109421;1257;74777;-54
2024/02/29 06:10:04;;;;;;;;;;;;;;;1.22;100.00;101700.69;109401;1256;66940;-59
2024/02/29 06:12:32;;;;;;;;;;;;;;;1.92;100.00;101693.02;109424;1253;73110;-54
2024/02/29 06:15:00;;;;;;;;;;;;;;;2.53;100.00;101680.21;109400;1253;59388;-60
2024/02/29 06:17:27;;;;;;;;;;;;;;;3.02;100.00;101673.67;109405;1253;59883;-53
2024/02/29 06:19:55;;;;;;;;;;;;;;;3.43;100.00;101670.30;109409;1253;74734;-54
2024/02/29 06:22:22;;;;;;;;;;;;;;;3.78;100.00;101661.58;109384;1253;66077;-57
2024/02/29 06:24:50;;;;;;;;;;;;;;;3.94;100.00;101652.20;109436;1253;70726;-53
2024/02/29 06:27:20;;;;;;;;;;;;;;;4.04;100.00;101652.35;109395;1252;59319;-54
2024/02/29 06:29:47;;;;;;;;;;;;;;;4.27;100.00;101645.11;109423;1253;59858;-53
2024/02/29 06:32:15;;;;;;;;;;;;;;;4.56;100.00;101646.34;109400;1252;74728;-60
2024/02/29 06:34:43;;;;;;;;;;;;;;;4.79;100.00;101639.88;109399;1253;69393;-55
2024/02/29 06:37:11;;;;;;;;;;;;;;;4.94;100.00;101643.23;109416;1251;73786;-54
2024/02/29 06:39:39;;;;;;;;;;;;;;;5.01;100.00;101638.93;109389;1254;59108;-54
2024/02/29 06:42:06;;;;;;;;;;;;;;;5.04;100.00;101636.06;109445;1252;58959;-54
2024/02/29 06:44:34;;;;;;;;;;;;;;;5.20;99.86;101634.24;109386;1256;75782;-54
2024/02/29 06:47:01;;;;;;;;;;;;;;;5.43;95.69;101632.84;109450;1253;68821;-54
2024/02/29 06:49:29;;;;;;;;;;;;;;;5.56;92.86;101634.66;109383;1253;75057;-54
2024/02/29 06:51:56;;;;;;;;;;;;;;;5.75;89.55;101633.52;109417;1253;59001;-54
2024/02/29 06:54:24;;;;;;;;;;;;;;;5.94;86.13;101638.49;109356;1252;60020;-60
2024/02/29 06:56:52;;;;;;;;;;;;;;;6.16;84.33;101639.19;109404;1252;73842;-54
2024/02/29 06:59:20;;;;;;;;;;;;;;;6.46;81.56;101635.41;109443;1254;66926;-55
2024/02/29 07:01:49;;;;;;;;;;;;;;;6.62;75.25;101636.73;109373;1253;71810;-53
2024/02/29 07:04:16;;;;;;;;;;;;;;;6.64;72.80;101635.38;109366;1254;61020;-57
2024/02/29 07:06:44;;;;;;;;;;;;;;;6.70;72.27;101632.83;109372;1254;60898;-55
2024/02/29 07:09:11;;;;;;;;;;;;;;;6.85;70.23;101628.33;109406;1253;74790;-54
2024/02/29 07:11:40;;;;;;;;;;;;;;;6.98;68.38;101626.19;109403;1251;67632;-54
2024/02/29 07:14:08;;;;;;;;;;;;;;;7.07;67.84;101622.52;109196;1254;215883;-54
2024/02/29 07:16:35;;;;;;;;;;;;;;;7.23;66.06;101620.66;109363;1253;60333;-55
2024/02/29 07:19:03;;;;;;;;;;;;;;;7.27;64.73;101615.13;109429;1254;63203;-54
2024/02/29 07:21:31;;;;;;;;;;;;;;;7.16;63.61;101610.41;109416;1253;74760;-54
2024/02/29 07:23:59;;;;;;;;;;;;;;;7.06;64.23;101603.75;109467;1253;67916;-54
2024/02/29 07:26:27;;;;;;;;;;;;;;;7.03;65.59;101599.36;109403;1254;73646;-59
2024/02/29 07:28:54;;;;;;;;;;;;;;;7.15;65.49;101596.13;109374;1253;62767;-53
2024/02/29 07:31:22;;;;;;;;;;;;;;;7.18;65.08;101595.19;109431;1254;59904;-54
2024/02/29 07:33:49;;;;;;;;;;;;;;;7.22;64.80;101592.35;109404;1253;72883;-54
2024/02/29 07:36:17;;;;;;;;;;;;;;;7.31;65.16;101597.34;109421;1254;66978;-54
2024/02/29 07:38:46;;;;;;;;;;;;;;;7.51;64.67;101591.19;109331;1252;73726;-59
2024/02/29 07:41:14;;;;;;;;;;;;;;;7.71;63.24;101589.08;109364;1252;61381;-54
2024/02/29 07:43:42;;;;;;;;;;;;;;;7.92;62.27;101592.88;109414;1253;61828;-54
2024/02/29 07:46:10;;;;;;;;;;;;;;;8.16;60.66;101583.70;109394;1254;76782;-54
2024/02/29 07:48:37;;;;;;;;;;;;;;;8.43;60.01;101589.40;109429;1253;69693;-55
2024/02/29 07:51:05;;;;;;;;;;;;;;;8.68;58.17;101590.89;109321;1254;74929;-55
2024/02/29 07:53:32;;;;;;;;;;;;;;;8.79;57.67;101587.79;109356;1253;60331;-54
2024/02/29 07:56:03;;;;;;;;;;;;;;;9.08;57.34;101589.95;109373;1252;60918;-55
2024/02/29 07:58:30;;;;;;;;;;;;;;;9.44;55.65;101585.67;109405;1252;76125;-54
2024/02/29 08:00:58;;;;;;;;;;;;;;;9.58;53.92;101583.45;109347;1254;69954;-55
2024/02/29 08:03:26;;;;;;;;;;;;;;;9.68;52.50;101587.02;109388;1253;72507;-54
2024/02/29 08:05:53;;;;;;;;;;;;;;;9.61;51.78;101582.80;109414;1253;60275;-54
2024/02/29 08:08:21;;;;;;;;;;;;;;;9.60;51.54;101585.73;109364;1253;60278;-55
2024/02/29 08:10:49;;;;;;;;;;;;;;;9.59;49.60;101580.06;109395;1252;76777;-54
2024/02/29 08:13:17;;;;;;;;;;;;;;;9.52;48.35;101583.14;109400;1252;69528;-55
2024/02/29 08:15:44;;;;;;;;;;;;;;;9.48;48.36;101581.56;109474;1253;74774;-55
2024/02/29 08:18:13;;;;;;;;;;;;;;;9.52;47.35;101582.29;109453;1253;60269;-55
2024/02/29 08:20:42;;;;;;;;;;;;;;;9.62;47.25;101581.98;109504;1253;61876;-55
2024/02/29 08:23:12;;;;;;;;;;;;;;;9.96;47.49;101580.85;109476;1253;76055;-55
2024/02/29 08:25:39;;;;;;;;;;;;;;;10.44;46.10;101575.75;109444;1252;67734;-55
2024/02/29 08:28:07;;;;;;;;;;;;;;;10.72;44.83;101576.85;109438;1254;74829;-55
2024/02/29 08:30:34;;;;;;;;;;;;;;;10.94;44.33;101578.35;109483;1251;61185;-55
2024/02/29 08:33:02;;;;;;;;;;;;;;;11.25;43.93;101572.73;109408;1253;60943;-55
2024/02/29 08:35:30;;;;;;;;;;;;;;;11.45;42.51;101567.23;109462;1251;76311;-55
2024/02/29 08:37:57;;;;;;;;;;;;;;;11.22;41.77;101565.44;109432;1251;68845;-56
2024/02/29 08:40:25;;;;;;;;;;;;;;;10.89;41.76;101567.69;109463;1253;75515;-56
2024/02/29 08:42:53;;;;;;;;;;;;;;;10.59;42.18;101563.49;109404;1253;62502;-56
2024/02/29 08:45:20;;;;;;;;;;;;;;;10.37;42.56;101564.41;109466;1252;61987;-55
2024/02/29 08:47:50;;;;;;;;;;;;;;;10.21;43.17;101556.64;109481;1252;77233;-54
2024/02/29 08:50:17;;;;;;;;;;;;;;;10.24;43.45;101552.70;109436;1251;66694;-55
2024/02/29 08:52:45;;;;;;;;;;;;;;;10.38;43.85;101549.59;109469;1251;74795;-55
2024/02/29 08:55:12;;;;;;;;;;;;;;;10.68;43.56;101548.44;109421;1251;61491;-55
2024/02/29 08:57:40;;;;;;;;;;;;;;;10.78;42.88;101548.64;109437;1251;61848;-56
2024/02/29 09:00:08;;;;;;;;;;;;;;;10.69;42.63;101544.28;109519;1251;74352;-54
2024/02/29 09:02:35;;;;;;;;;;;;;;;10.65;42.59;101547.79;109493;1251;68431;-54
2024/02/29 09:05:04;;;;;;;;;;;;;;;10.71;42.28;101547.23;109459;1251;74785;-54
2024/02/29 09:07:31;;;;;;;;;;;;;;;10.72;41.97;101545.51;109434;1252;62190;-55
2024/02/29 09:09:59;;;;;;;;;;;;;;;10.77;42.24;101534.98;109474;1251;61521;-54
2024/02/29 09:12:26;;;;;;;;;;;;;;;11.02;42.19;101539.92;109456;1251;77147;-54
2024/02/29 09:14:54;;;;;;;;;;;;;;;11.21;41.72;101536.27;109501;1253;67867;-54
2024/02/29 09:17:22;;;;;;;;;;;;;;;11.50;41.54;101530.01;109456;1253;74849;-54
2024/02/29 09:19:49;;;;;;;;;;;;;;;11.78;40.75;101531.98;109433;1252;61400;-54
2024/02/29 09:22:17;;;;;;;;;;;;;;;11.74;40.03;101532.63;109470;1251;61906;-54
2024/02/29 09:24:45;;;;;;;;;;;;;;;11.67;39.63;101534.83;109479;1251;76749;-54
2024/02/29 09:27:13;;;;;;;;;;;;;;;11.65;39.55;101533.02;109483;1251;68150;-55
2024/02/29 09:29:41;;;;;;;;;;;;;;;11.70;39.75;101527.58;109368;1252;73740;-55
2024/02/29 09:32:09;;;;;;;;;;;;;;;11.88;39.62;101525.09;109440;1251;61140;-55
2024/02/29 09:34:37;;;;;;;;;;;;;;;11.79;39.14;101520.02;109451;1251;61913;-55
2024/02/29 09:37:10;;;;;;;;;;;;;;;11.57;39.41;101516.06;109432;1251;77190;-60
2024/02/29 09:39:38;;;;;;;;;;;;;;;11.49;39.27;101517.46;109457;1253;69152;-55
2024/02/29 09:42:06;;;;;;;;;;;;;;;11.41;39.20;101509.98;109472;1251;74881;-55
2024/02/29 09:44:42;;;;;;;;;;;;;;;11.36;39.52;101508.05;109452;1251;61125;-54
2024/02/29 09:47:11;;;;;;;;;;;;;;;11.44;39.94;101508.02;109480;1251;60741;-54
2024/02/29 09:49:38;;;;;;;;;;;;;;;11.60;39.65;101507.61;109438;1251;77103;-55
2024/02/29 09:52:06;;;;;;;;;;;;;;;11.68;39.19;101507.60;109466;1251;70240;-54
2024/02/29 09:54:34;;;;;;;;;;;;;;;11.61;38.72;101510.95;109440;1251;73649;-55
2024/02/29 09:57:02;;;;;;;;;;;;;;;11.46;38.84;101506.78;109337;1253;60709;-55
2024/02/29 09:59:29;;;;;;;;;;;;;;;11.47;39.36;101500.31;109452;1252;59996;-59
2024/02/29 10:01:57;;;;;;;;;;;;;;;11.74;39.35;101490.09;109341;1251;76803;-54
2024/02/29 10:04:26;;;;;;;;;;;;;;;11.97;38.59;101486.69;109398;1251;70468;-55
2024/02/29 10:06:54;;;;;;;;;;;;;;;11.76;38.14;101497.14;109506;1252;73738;-54
2024/02/29 10:09:22;;;;;;;;;;;;;;;11.54;38.83;101489.61;109429;1253;62273;-54
2024/02/29 10:11:52;;;;;;;;;;;;;;;11.62;39.31;101490.09;109450;1251;60820;-55
2024/02/29 10:14:20;;;;;;;;;;;;;;;11.65;38.51;101495.41;109484;1251;74251;-55
2024/02/29 10:16:49;;;;;;;;;;;;;;;11.51;38.84;101496.13;109486;1251;68592;-55
2024/02/29 10:19:17;;;;;;;;;;;;;;;11.50;38.95;101495.95;109447;1251;74772;-55
2024/02/29 10:21:45;;;;;;;;;;;;;;;11.49;39.15;101492.85;109480;1251;62163;-54
2024/02/29 10:24:12;;;;;;;;;;;;;;;11.66;39.44;101493.39;109458;1252;61390;-54
2024/02/29 10:26:40;;;;;;;;;;;;;;;11.80;38.72;101489.66;109493;1251;77396;-55
2024/02/29 10:29:08;;;;;;;;;;;;;;;11.79;38.75;101491.67;109487;1251;69328;-54
2024/02/29 10:31:36;;;;;;;;;;;;;;;11.87;38.81;101488.43;109449;1251;74855;-55
2024/02/29 10:34:08;;;;;;;;;;;;;;;11.91;38.69;101486.78;109412;1251;61506;-55
2024/02/29 10:36:36;;;;;;;;;;;;;;;11.93;38.74;101487.73;109473;1251;60799;-54
2024/02/29 10:39:03;;;;;;;;;;;;;;;11.97;38.47;101486.30;109476;1251;76782;-55
2024/02/29 10:41:31;;;;;;;;;;;;;;;11.92;38.40;101485.40;109457;1251;68811;-54
2024/02/29 10:44:03;;;;;;;;;;;;;;;11.86;38.70;101481.69;109372;1251;76150;-54
2024/02/29 10:46:31;;;;;;;;;;;;;;;11.84;38.58;101475.30;109507;1251;61293;-55
2024/02/29 10:49:01;;;;;;;;;;;;;;;11.84;38.73;101478.80;109306;1251;61944;-54
2024/02/29 10:51:32;;;;;;;;;;;;;;;11.89;38.76;101479.69;109428;1251;76747;-58
2024/02/29 10:54:04;;;;;;;;;;;;;;;11.91;38.64;101475.27;109527;1251;69204;-55
2024/02/29 10:56:31;;;;;;;;;;;;;;;11.88;38.57;101474.66;109458;1251;73017;-55
2024/02/29 10:59:02;;;;;;;;;;;;;;;11.87;38.72;101469.20;109461;1251;62303;-54
2024/02/29 11:01:34;;;;;;;;;;;;;;;11.94;38.70;101469.54;109387;1251;62446;-59
2024/02/29 11:04:02;;;;;;;;;;;;;;;12.03;38.67;101467.18;109438;1251;76775;-55
2024/02/29 11:06:30;;;;;;;;;;;;;;;12.11;38.80;101468.30;109460;1252;68171;-55
2024/02/29 11:08:57;;;;;;;;;;;;;;;12.14;38.37;101467.30;109289;1251;73898;-54
2024/02/29 11:11:25;;;;;;;;;;;;;;;11.99;38.35;101462.58;109400;1251;62352;-56
2024/02/29 11:14:05;;;;;;;;;;;;;;;11.84;38.62;101460.85;109435;1251;62348;-55
2024/02/29 11:16:33;;;;;;;;;;;;;;;11.70;38.76;101459.67;109472;1251;76810;-56
2024/02/29 11:19:02;;;;;;;;;;;;;;;11.56;38.95;101458.20;109392;1252;68087;-54
2024/02/29 11:21:30;;;;;;;;;;;;;;;11.52;39.14;101457.72;109275;1253;74827;-55
2024/02/29 11:24:04;;;;;;;;;;;;;;;11.59;39.39;101454.79;109320;1253;62444;-55
2024/02/29 11:26:32;;;;;;;;;;;;;;;11.67;39.15;101451.30;109367;1253;60913;-55
2024/02/29 11:29:15;;;;;;;;;;;;;;;11.75;38.98;101448.71;109406;1253;76959;-55
2024/02/29 11:31:49;;;;;;;;;;;;;;;11.81;38.93;101444.64;109358;1253;68841;-54
2024/02/29 11:34:18;;;;;;;;;;;;;;;11.86;38.66;101441.67;109321;1253;73825;-53
2024/02/29 11:36:49;;;;;;;;;;;;;;;11.87;38.44;101440.10;109307;1253;61141;-58
2024/02/29 11:39:17;;;;;;;;;;;;;;;11.78;37.94;101436.70;109403;1251;60899;-54
2024/02/29 11:41:45;;;;;;;;;;;;;;;11.69;38.19;101433.77;109488;1251;75901;-54
2024/02/29 11:44:12;;;;;;;;;;;;;;;11.73;38.38;101433.23;109435;1253;67818;-53
2024/02/29 11:46:47;;;;;;;;;;;;;;;11.77;38.26;101428.30;109458;1251;73633;-54
2024/02/29 11:49:15;;;;;;;;;;;;;;;11.84;38.19;101427.09;109434;1251;61076;-54
2024/02/29 11:51:43;;;;;;;;;;;;;;;11.95;37.86;101426.06;109502;1252;60916;-53
2024/02/29 11:54:17;;;;;;;;;;;;;;;11.95;37.51;101419.98;109499;1251;77306;-55
2024/02/29 11:56:45;;;;;;;;;;;;;;;11.92;37.24;101420.94;109473;1251;70669;-58
2024/02/29 11:59:15;;;;;;;;;;;;;;;11.84;37.18;101415.91;109437;1251;75440;-53
2024/02/29 12:01:43;;;;;;;;;;;;;;;11.76;37.38;101417.92;109442;1251;61515;-53
2024/02/29 12:04:11;;;;;;;;;;;;;;;11.75;37.38;101414.20;109462;1251;60830;-53
2024/02/29 12:06:44;;;;;;;;;;;;;;;11.77;37.27;101418.41;109501;1251;77287;-54
2024/02/29 12:09:13;;;;;;;;;;;;;;;11.77;37.23;101416.84;109454;1251;68000;-54
2024/02/29 12:11:41;;;;;;;;;;;;;;;11.80;37.08;101413.84;109512;1251;74171;-54
2024/02/29 12:14:09;;;;;;;;;;;;;;;11.87;37.03;101411.62;109291;1251;62018;-53
2024/02/29 12:16:37;;;;;;;;;;;;;;;12.01;36.97;101408.84;109449;1251;60921;-54
2024/02/29 12:19:05;;;;;;;;;;;;;;;12.07;36.77;101414.88;109481;1251;78236;-53
2024/02/29 12:21:35;;;;;;;;;;;;;;;11.97;36.84;101402.41;109486;1251;68011;-54
2024/02/29 12:24:03;;;;;;;;;;;;;;;11.91;36.95;101406.95;109469;1251;74176;-53
2024/02/29 12:26:30;;;;;;;;;;;;;;;11.81;37.26;101405.06;109336;1251;61091;-54